Time;durP1;ratioP1;P1;durP2;ratioP2;P2;SDS_P1;SDS_P2;PMS_P1;PMS_P2;Temp;Humidity;BMP_temperature;BMP_pressure;BME280_temperature;BME280_humidity;BME280_pressure;Samples;Min_cycle;Max_cycle;Signal;HPM_P1;HPM_P2
2023/07/09 00:02:16;;;;;;;3.60;3.30;;;22.90;70.80;;;;;;4954603;29;20500;-78
2023/07/09 00:04:44;;;;;;;5.13;4.63;;;22.90;70.60;;;;;;4954853;28;20510;-78
2023/07/09 00:07:19;;;;;;;4.57;4.00;;;22.90;70.60;;;;;;4954526;29;20476;-75
2023/07/09 00:09:48;;;;;;;5.07;4.63;;;22.90;70.50;;;;;;4955536;29;21022;-77
2023/07/09 00:12:17;;;;;;;5.60;5.10;;;22.80;70.60;;;;;;4954885;29;20472;-79
2023/07/09 00:14:44;;;;;;;5.67;5.17;;;22.80;70.70;;;;;;4955648;28;20482;-79
2023/07/09 00:17:13;;;;;;;4.60;4.20;;;22.80;70.90;;;;;;4955166;29;20563;-77
2023/07/09 00:19:40;;;;;;;4.60;4.20;;;22.90;71.10;;;;;;4955745;29;20472;-77
2023/07/09 00:22:17;;;;;;;5.10;4.40;;;22.80;71.10;;;;;;4954783;29;20500;-77
2023/07/09 00:24:47;;;;;;;5.33;4.83;;;22.80;71.20;;;;;;4955277;28;20821;-75
2023/07/09 00:27:18;;;;;;;8.30;5.93;;;22.80;71.20;;;;;;4954894;29;20530;-79
2023/07/09 00:29:45;;;;;;;5.70;4.37;;;22.80;71.40;;;;;;4955177;29;20852;-75
2023/07/09 00:32:15;;;;;;;6.53;5.93;;;22.80;71.30;;;;;;4954815;29;20494;-76
2023/07/09 00:34:42;;;;;;;6.00;4.70;;;22.80;71.30;;;;;;4954837;28;20629;-79
2023/07/09 00:37:13;;;;;;;6.17;5.67;;;22.80;71.50;;;;;;4954492;29;20488;-79
2023/07/09 00:39:41;;;;;;;5.03;4.63;;;22.80;71.60;;;;;;4958417;29;20452;-75
2023/07/09 00:42:17;;;;;;;3.83;3.47;;;22.80;71.60;;;;;;4958348;29;20475;-79
2023/07/09 00:44:45;;;;;;;5.20;3.93;;;22.80;71.70;;;;;;4958646;28;20455;-79
2023/07/09 00:47:30;;;;;;;4.47;4.07;;;22.80;71.80;;;;;;4957788;29;20527;-76
2023/07/09 00:50:09;;;;;;;4.33;3.97;;;22.80;72.00;;;;;;4958712;29;20489;-76
2023/07/09 00:52:45;;;;;;;4.20;3.87;;;22.80;72.00;;;;;;4958568;29;20461;-79
2023/07/09 00:55:16;;;;;;;3.97;3.67;;;22.80;72.30;;;;;;4957277;28;20490;-79
2023/07/09 00:57:56;;;;;;;3.80;3.50;;;22.80;72.50;;;;;;4957645;29;20467;-76
2023/07/09 01:00:27;;;;;;;3.67;3.37;;;22.80;72.70;;;;;;4957939;29;20503;-80
2023/07/09 01:02:55;;;;;;;3.93;3.60;;;22.80;73.00;;;;;;4958484;29;20959;-80
2023/07/09 01:05:22;;;;;;;4.37;4.07;;;22.80;73.40;;;;;;4957059;28;20539;-77
2023/07/09 01:07:49;;;;;;;4.17;3.77;;;22.70;73.50;;;;;;4958505;29;20835;-77
2023/07/09 01:10:18;;;;;;;5.10;4.40;;;22.80;73.80;;;;;;4957656;29;20514;-77
2023/07/09 01:12:49;;;;;;;4.60;4.20;;;22.70;73.80;;;;;;4958198;29;20499;-80
2023/07/09 01:15:16;;;;;;;4.10;3.80;;;22.70;73.40;;;;;;4955307;28;20566;-77
2023/07/09 01:17:44;;;;;;;4.70;4.20;;;22.70;73.60;;;;;;4958741;29;20548;-80
2023/07/09 01:20:20;;;;;;;4.10;3.73;;;22.70;73.60;;;;;;4958312;29;20476;-79
2023/07/09 01:22:50;;;;;;;3.70;3.40;;;22.70;73.50;;;;;;4947548;29;20829;-80
2023/07/09 01:25:17;;;;;;;3.60;3.30;;;22.70;73.80;;;;;;4957440;28;20483;-79
2023/07/09 01:27:47;;;;;;;4.60;4.20;;;22.70;74.00;;;;;;4957024;29;20814;-76
2023/07/09 01:30:22;;;;;;;3.50;3.20;;;22.70;74.20;;;;;;4958021;29;20472;-76
2023/07/09 01:32:49;;;;;;;3.37;3.17;;;22.70;74.20;;;;;;4957213;29;20466;-76
2023/07/09 01:35:18;;;;;;;3.87;3.57;;;22.70;74.40;;;;;;4957766;28;20480;-76
2023/07/09 01:37:46;;;;;;;4.10;3.80;;;22.70;74.60;;;;;;4956889;29;20464;-80
2023/07/09 01:40:17;;;;;;;4.23;3.83;;;22.70;74.70;;;;;;4957475;29;20795;-80
2023/07/09 01:42:45;;;;;;;4.20;3.80;;;22.70;74.90;;;;;;4956588;29;20472;-77
2023/07/09 01:45:12;;;;;;;3.70;3.40;;;22.60;74.90;;;;;;4955479;28;20475;-76
2023/07/09 01:47:40;;;;;;;4.07;3.77;;;22.60;75.20;;;;;;4955191;29;20473;-81
2023/07/09 01:50:09;;;;;;;3.53;3.23;;;22.60;75.40;;;;;;4956804;28;20503;-80
2023/07/09 01:52:39;;;;;;;4.93;3.47;;;22.60;75.60;;;;;;4957006;29;20562;-79
2023/07/09 01:55:07;;;;;;;4.40;4.00;;;22.60;76.20;;;;;;4957205;28;20973;-76
2023/07/09 01:57:39;;;;;;;4.27;3.87;;;22.50;76.00;;;;;;4955575;29;20471;-77
2023/07/09 02:00:09;;;;;;;4.70;4.10;;;22.50;76.10;;;;;;4956608;29;20472;-80
2023/07/09 02:02:38;;;;;;;4.10;3.80;;;22.50;76.30;;;;;;4956239;29;20467;-80
2023/07/09 02:05:07;;;;;;;3.87;3.60;;;22.50;76.60;;;;;;4956963;28;20503;-77
2023/07/09 02:07:34;;;;;;;4.30;3.90;;;22.50;76.80;;;;;;4957239;29;20482;-80
2023/07/09 02:10:01;;;;;;;4.13;3.80;;;22.40;76.90;;;;;;4957055;29;20531;-78
2023/07/09 02:12:28;;;;;;;3.80;3.50;;;22.40;77.00;;;;;;4957042;29;20476;-80
2023/07/09 02:14:56;;;;;;;4.07;3.77;;;22.40;77.30;;;;;;4955583;28;20456;-76
2023/07/09 02:17:23;;;;;;;4.43;4.13;;;22.40;77.30;;;;;;4956769;29;20559;-79
2023/07/09 02:19:50;;;;;;;4.10;3.70;;;22.40;77.40;;;;;;4956352;29;20472;-80
2023/07/09 02:22:19;;;;;;;3.70;3.40;;;22.40;77.50;;;;;;4956836;29;21024;-78
2023/07/09 02:24:47;;;;;;;3.70;3.47;;;22.40;77.50;;;;;;4956149;28;20559;-77
2023/07/09 02:27:17;;;;;;;3.57;3.30;;;22.40;77.60;;;;;;4956194;29;20548;-75
2023/07/09 02:29:45;;;;;;;3.67;3.37;;;22.30;77.60;;;;;;4955837;29;20531;-75
2023/07/09 02:32:18;;;;;;;3.77;3.47;;;22.30;77.60;;;;;;4956401;29;20487;-80
2023/07/09 02:34:48;;;;;;;4.10;3.73;;;22.30;77.60;;;;;;4955968;28;20476;-79
2023/07/09 02:37:18;;;;;;;3.73;3.53;;;22.30;77.70;;;;;;4956578;29;20468;-79
2023/07/09 02:39:45;;;;;;;4.50;4.10;;;22.30;77.80;;;;;;4955135;29;20482;-80
2023/07/09 02:42:17;;;;;;;3.80;3.50;;;22.30;77.80;;;;;;4955761;29;20510;-75
2023/07/09 02:44:45;;;;;;;5.27;4.77;;;22.30;77.80;;;;;;4955957;28;20554;-79
2023/07/09 02:47:15;;;;;;;4.83;4.43;;;22.30;77.90;;;;;;4956361;29;20498;-79
2023/07/09 02:49:42;;;;;;;5.23;4.73;;;22.30;78.00;;;;;;4955447;29;20503;-75
2023/07/09 02:52:10;;;;;;;5.90;5.30;;;22.30;77.90;;;;;;4955802;29;20479;-75
2023/07/09 02:54:37;;;;;;;5.37;4.87;;;22.30;77.90;;;;;;4956186;28;20591;-80
2023/07/09 02:57:05;;;;;;;5.20;4.70;;;22.20;78.00;;;;;;4955831;29;20563;-79
2023/07/09 02:59:32;;;;;;;5.77;4.70;;;22.20;78.20;;;;;;4956178;29;20476;-79
2023/07/09 03:02:01;;;;;;;4.23;3.83;;;22.20;78.40;;;;;;4956393;28;20558;-79
2023/07/09 03:04:31;;;;;;;5.37;4.87;;;22.20;78.40;;;;;;4955970;28;20539;-75
2023/07/09 03:06:59;;;;;;;4.87;4.40;;;22.10;78.40;;;;;;4955587;29;20479;-75
2023/07/09 03:09:27;;;;;;;5.47;4.00;;;22.10;78.50;;;;;;4956055;29;20476;-79
2023/07/09 03:11:55;;;;;;;5.07;4.67;;;22.10;78.60;;;;;;4955689;29;20538;-76
2023/07/09 03:14:22;;;;;;;5.10;4.60;;;22.00;78.70;;;;;;4956273;28;20479;-77
2023/07/09 03:16:52;;;;;;;8.03;4.20;;;21.90;79.00;;;;;;4955502;29;20539;-80
2023/07/09 03:19:21;;;;;;;4.17;3.57;;;21.90;79.10;;;;;;4956548;29;20480;-77
2023/07/09 03:21:49;;;;;;;4.30;4.00;;;21.90;79.30;;;;;;4955150;29;20484;-75
2023/07/09 03:24:18;;;;;;;5.07;4.63;;;21.80;79.40;;;;;;4955808;28;20471;-79
2023/07/09 03:26:46;;;;;;;7.53;6.20;;;21.80;79.50;;;;;;4955271;29;20476;-75
2023/07/09 03:29:14;;;;;;;4.40;4.00;;;21.70;79.50;;;;;;4955173;29;20478;-75
2023/07/09 03:31:41;;;;;;;4.53;4.13;;;21.70;79.70;;;;;;4955139;29;20885;-76
2023/07/09 03:34:08;;;;;;;4.20;3.80;;;21.60;80.10;;;;;;4955455;28;20968;-75
2023/07/09 03:36:37;;;;;;;4.90;4.40;;;21.60;80.40;;;;;;4955941;29;20475;-76
2023/07/09 03:39:06;;;;;;;4.80;4.40;;;21.60;80.60;;;;;;4955091;29;20460;-75
2023/07/09 03:41:33;;;;;;;4.37;4.00;;;21.60;80.60;;;;;;4946283;29;20558;-80
2023/07/09 03:44:00;;;;;;;7.43;4.90;;;21.50;80.70;;;;;;4954735;28;20464;-76
2023/07/09 03:46:27;;;;;;;5.50;5.00;;;21.60;80.80;;;;;;4955209;29;20551;-78
2023/07/09 03:48:54;;;;;;;5.33;4.90;;;21.50;80.60;;;;;;4954888;29;20551;-76
2023/07/09 03:51:21;;;;;;;5.83;5.33;;;21.50;80.50;;;;;;4956117;29;20551;-80
2023/07/09 03:53:48;;;;;;;4.20;3.80;;;21.50;80.60;;;;;;4954853;28;20487;-77
2023/07/09 03:56:17;;;;;;;5.20;4.70;;;21.50;80.80;;;;;;4955542;29;20464;-79
2023/07/09 03:58:44;;;;;;;4.50;4.10;;;21.50;80.90;;;;;;4955222;29;20531;-80
2023/07/09 04:01:13;;;;;;;4.47;4.07;;;21.40;81.20;;;;;;4954210;29;20547;-80
2023/07/09 04:03:40;;;;;;;4.60;4.20;;;21.50;81.50;;;;;;4954013;28;20476;-80
2023/07/09 04:06:09;;;;;;;5.00;4.67;;;21.40;81.50;;;;;;4955302;29;20459;-80
2023/07/09 04:08:36;;;;;;;4.57;4.10;;;21.40;81.90;;;;;;4954824;29;20797;-79
2023/07/09 04:11:04;;;;;;;4.80;4.30;;;21.40;81.80;;;;;;4954561;29;20472;-80
2023/07/09 04:13:32;;;;;;;4.40;4.00;;;21.50;82.00;;;;;;4956954;28;20479;-80
2023/07/09 04:15:59;;;;;;;5.20;4.70;;;21.50;82.00;;;;;;4959253;29;20543;-80
2023/07/09 04:18:26;;;;;;;4.50;4.20;;;21.50;82.10;;;;;;4959313;29;20833;-80
2023/07/09 04:20:56;;;;;;;4.00;3.70;;;21.50;82.00;;;;;;4948686;29;20495;-77
2023/07/09 04:23:24;;;;;;;5.10;4.37;;;21.50;82.00;;;;;;4943663;29;20502;-77
2023/07/09 04:25:51;;;;;;;6.33;4.47;;;21.60;82.10;;;;;;4958659;29;20491;-76
2023/07/09 04:28:18;;;;;;;9.00;4.87;;;21.60;82.30;;;;;;4958831;29;20495;-81
2023/07/09 04:30:51;;;;;;;6.00;3.53;;;21.60;82.30;;;;;;4959413;29;20522;-80
2023/07/09 04:33:19;;;;;;;4.30;4.00;;;21.60;82.40;;;;;;4958512;29;20542;-77
2023/07/09 04:35:47;;;;;;;4.20;3.77;;;21.60;82.30;;;;;;4959092;28;20496;-79
2023/07/09 04:38:15;;;;;;;4.10;3.77;;;21.60;82.30;;;;;;4957354;29;21422;-81
2023/07/09 04:40:42;;;;;;;4.13;3.73;;;21.60;82.30;;;;;;4958799;29;20849;-76
2023/07/09 04:43:09;;;;;;;4.83;4.33;;;21.70;82.20;;;;;;4958305;29;20475;-81
2023/07/09 04:45:36;;;;;;;4.73;4.33;;;21.70;83.00;;;;;;4958706;28;20873;-81
2023/07/09 04:48:05;;;;;;;5.23;4.83;;;21.70;82.30;;;;;;4957434;29;20531;-77
2023/07/09 04:50:32;;;;;;;6.40;4.30;;;21.80;82.20;;;;;;4958527;29;20562;-81
2023/07/09 04:53:03;;;;;;;4.40;3.77;;;21.80;82.10;;;;;;4958231;29;20543;-77
2023/07/09 04:55:30;;;;;;;4.47;4.07;;;21.90;82.20;;;;;;4958462;28;20475;-78
2023/07/09 04:57:57;;;;;;;5.67;4.53;;;21.90;82.00;;;;;;4957985;29;20471;-76
2023/07/09 05:00:24;;;;;;;9.50;3.97;;;22.00;82.10;;;;;;4958427;29;20837;-77
2023/07/09 05:02:51;;;;;;;3.90;3.60;;;22.00;82.00;;;;;;4958380;29;20476;-77
2023/07/09 05:05:20;;;;;;;5.03;4.63;;;22.00;81.70;;;;;;4958023;28;20477;-76
2023/07/09 05:07:47;;;;;;;4.37;4.07;;;22.10;81.70;;;;;;4958500;29;20472;-79
2023/07/09 05:10:14;;;;;;;5.33;4.80;;;22.10;81.50;;;;;;4958948;29;20578;-76
2023/07/09 05:12:50;;;;;;;3.70;3.40;;;22.20;81.60;;;;;;4959312;29;20583;-76
2023/07/09 05:15:18;;;;;;;4.83;4.10;;;22.30;81.50;;;;;;4958684;28;20503;-79
2023/07/09 05:17:45;;;;;;;5.40;4.90;;;22.30;81.10;;;;;;4958088;29;20495;-78
2023/07/09 05:20:12;;;;;;;4.10;3.80;;;22.40;80.90;;;;;;4957006;29;20472;-76
2023/07/09 05:22:41;;;;;;;4.93;4.27;;;22.40;80.80;;;;;;4958423;29;20841;-79
2023/07/09 05:25:09;;;;;;;5.37;4.53;;;22.40;80.50;;;;;;4955463;28;20490;-79
2023/07/09 05:27:37;;;;;;;4.27;3.97;;;22.50;80.10;;;;;;4957823;29;20563;-80
2023/07/09 05:30:05;;;;;;;5.20;4.80;;;22.60;80.30;;;;;;4957056;29;20503;-79
2023/07/09 05:32:34;;;;;;;3.83;3.53;;;22.60;80.30;;;;;;4957636;29;20472;-79
2023/07/09 05:35:01;;;;;;;4.70;4.23;;;22.70;80.40;;;;;;4957281;28;20475;-79
2023/07/09 05:37:28;;;;;;;3.73;3.53;;;22.80;80.50;;;;;;4957953;29;20550;-77
2023/07/09 05:39:57;;;;;;;4.40;4.10;;;22.80;80.60;;;;;;4957386;29;20548;-80
2023/07/09 05:42:24;;;;;;;4.23;3.90;;;22.90;81.50;;;;;;4957511;29;21041;-79
2023/07/09 05:44:52;;;;;;;3.80;3.50;;;22.90;82.20;;;;;;4948172;28;20567;-77
2023/07/09 05:47:21;;;;;;;4.63;3.97;;;23.00;82.80;;;;;;4945492;29;20558;-77
2023/07/09 05:49:50;;;;;;;4.20;3.70;;;23.10;81.90;;;;;;4943882;29;20476;-80
2023/07/09 05:52:19;;;;;;;4.60;4.20;;;23.20;80.80;;;;;;4957276;29;20501;-77
2023/07/09 05:54:47;;;;;;;4.87;4.37;;;23.20;80.50;;;;;;4957509;28;20555;-78
2023/07/09 05:57:16;;;;;;;4.80;4.37;;;23.30;80.70;;;;;;4955718;29;20961;-75
2023/07/09 05:59:43;;;;;;;5.17;4.77;;;23.40;79.90;;;;;;4957312;29;20464;-78
2023/07/09 06:02:12;;;;;;;4.17;3.80;;;23.50;79.50;;;;;;4956059;29;20583;-79
2023/07/09 06:04:40;;;;;;;4.10;3.80;;;23.60;79.40;;;;;;4956705;28;20488;-78
2023/07/09 06:07:07;;;;;;;4.60;4.13;;;23.70;79.70;;;;;;4957106;29;20880;-76
2023/07/09 06:09:34;;;;;;;3.90;3.60;;;23.80;80.80;;;;;;4955950;29;20787;-76
2023/07/09 06:12:02;;;;;;;4.67;4.27;;;23.90;80.00;;;;;;4957270;29;20468;-76
2023/07/09 06:14:32;;;;;;;4.17;3.80;;;24.00;79.30;;;;;;4946992;28;20488;-79
2023/07/09 06:16:59;;;;;;;4.60;4.20;;;24.10;78.10;;;;;;4954983;29;20492;-76
2023/07/09 06:19:26;;;;;;;3.93;3.70;;;24.30;77.50;;;;;;4958386;29;20783;-79
2023/07/09 06:21:53;;;;;;;4.20;3.80;;;24.40;78.10;;;;;;4942451;29;20520;-80
2023/07/09 06:24:20;;;;;;;4.47;4.17;;;24.60;77.80;;;;;;4944542;28;20519;-80
2023/07/09 06:26:47;;;;;;;4.77;4.13;;;24.70;78.50;;;;;;4957495;29;20578;-80
2023/07/09 06:29:14;;;;;;;4.57;4.27;;;24.90;79.60;;;;;;4956709;29;20483;-80
2023/07/09 06:31:45;;;;;;;5.30;4.80;;;25.00;78.90;;;;;;4956568;29;20483;-77
2023/07/09 06:34:12;;;;;;;4.37;4.07;;;25.10;79.90;;;;;;4956618;28;20480;-76
2023/07/09 06:36:40;;;;;;;5.93;5.20;;;25.20;80.50;;;;;;4955466;28;20498;-77
2023/07/09 06:39:07;;;;;;;4.90;4.50;;;25.30;81.10;;;;;;4957384;29;20472;-80
2023/07/09 06:41:38;;;;;;;5.17;4.73;;;25.40;81.20;;;;;;4956878;29;20826;-79
2023/07/09 06:44:05;;;;;;;5.27;4.77;;;25.50;81.40;;;;;;4956195;28;20495;-79
2023/07/09 06:46:33;;;;;;;6.17;5.67;;;25.50;82.30;;;;;;4955889;29;20539;-78
2023/07/09 06:49:02;;;;;;;5.80;5.40;;;25.60;82.80;;;;;;4956051;29;20550;-79
2023/07/09 06:51:29;;;;;;;4.87;4.50;;;25.70;83.20;;;;;;4955503;29;21047;-79
2023/07/09 06:53:57;;;;;;;5.93;5.43;;;25.70;81.30;;;;;;4956235;28;20543;-79
2023/07/09 06:56:26;;;;;;;4.97;4.57;;;25.90;82.90;;;;;;4955321;29;20969;-75
2023/07/09 06:58:53;;;;;;;4.10;3.80;;;25.90;78.70;;;;;;4956076;29;20478;-79
2023/07/09 07:01:20;;;;;;;6.27;5.63;;;26.10;77.00;;;;;;4956237;29;20535;-76
2023/07/09 07:03:48;;;;;;;6.33;5.83;;;26.30;78.40;;;;;;4956184;28;20535;-79
2023/07/09 07:06:17;;;;;;;6.00;5.50;;;26.50;79.20;;;;;;4955932;29;20475;-79
2023/07/09 07:08:44;;;;;;;6.57;6.07;;;26.60;79.10;;;;;;4956152;29;20499;-76
2023/07/09 07:11:12;;;;;;;5.87;5.37;;;26.80;78.80;;;;;;4956595;29;20492;-79
2023/07/09 07:13:41;;;;;;;4.70;4.30;;;27.00;78.20;;;;;;4955671;28;20504;-76
2023/07/09 07:16:10;;;;;;;5.87;5.40;;;27.20;74.50;;;;;;4956174;29;20931;-76
2023/07/09 07:18:37;;;;;;;6.60;4.90;;;27.30;72.40;;;;;;4955706;29;20474;-80
2023/07/09 07:21:05;;;;;;;5.07;4.67;;;27.50;73.70;;;;;;4956184;29;20483;-79
2023/07/09 07:23:34;;;;;;;6.97;6.40;;;27.70;72.10;;;;;;4956416;28;20486;-81
2023/07/09 07:26:01;;;;;;;5.77;5.10;;;27.90;73.30;;;;;;4957461;29;20478;-80
2023/07/09 07:28:30;;;;;;;5.80;5.40;;;28.00;74.10;;;;;;4961895;29;20812;-79
2023/07/09 07:31:09;;;;;;;8.13;5.17;;;28.10;74.40;;;;;;4972023;29;20481;-79
2023/07/09 07:33:37;;;;;;;5.50;5.10;;;28.20;71.20;;;;;;4971252;28;20901;-77
2023/07/09 07:36:06;;;;;;;5.53;5.13;;;28.40;70.50;;;;;;4971483;29;20573;-77
2023/07/09 07:38:34;;;;;;;5.47;4.63;;;28.60;69.50;;;;;;4941845;29;20520;-76
2023/07/09 07:41:01;;;;;;;4.90;4.40;;;28.70;66.00;;;;;;4970971;29;20487;-78
2023/07/09 07:43:29;;;;;;;6.23;4.67;;;28.90;67.20;;;;;;4969149;28;20504;-76
2023/07/09 07:45:56;;;;;;;8.27;5.97;;;29.10;66.60;;;;;;4966017;29;20459;-80
2023/07/09 07:48:23;;;;;;;7.03;5.43;;;29.20;67.60;;;;;;4969374;28;20463;-80
2023/07/09 07:50:50;;;;;;;5.70;5.23;;;29.40;67.70;;;;;;4967221;29;20969;-78
2023/07/09 07:53:17;;;;;;;5.70;5.20;;;29.60;64.00;;;;;;4970405;29;20516;-80
2023/07/09 07:55:46;;;;;;;14.87;13.53;;;29.70;66.10;;;;;;4970088;28;20511;-77
2023/07/09 07:58:14;;;;;;;8.40;7.67;;;29.90;64.90;;;;;;4964860;29;20504;-80
2023/07/09 08:00:42;;;;;;;10.70;9.70;;;30.00;64.80;;;;;;4971308;29;20475;-76
2023/07/09 08:03:09;;;;;;;9.00;8.10;;;30.10;64.20;;;;;;4969966;29;20475;-77
2023/07/09 08:05:40;;;;;;;5.77;5.27;;;30.20;63.30;;;;;;4968814;28;20476;-76
2023/07/09 08:08:11;;;;;;;5.90;5.50;;;30.20;60.90;;;;;;4969796;29;20523;-79
2023/07/09 08:10:39;;;;;;;5.70;5.20;;;30.30;61.70;;;;;;4965098;29;20543;-80
2023/07/09 08:13:08;;;;;;;5.10;4.60;;;30.40;61.10;;;;;;4958917;29;20475;-76
2023/07/09 08:15:36;;;;;;;4.10;3.70;;;30.50;60.40;;;;;;4962896;28;20946;-78
2023/07/09 08:18:03;;;;;;;4.33;4.03;;;30.60;60.20;;;;;;4960995;29;20460;-76
2023/07/09 08:20:33;;;;;;;7.70;5.27;;;30.60;59.50;;;;;;4959473;29;20496;-77
2023/07/09 08:23:03;;;;;;;4.67;4.30;;;30.70;59.70;;;;;;4957549;29;20512;-77
2023/07/09 08:25:31;;;;;;;5.10;4.70;;;30.80;60.20;;;;;;4958431;28;20482;-80
2023/07/09 08:27:58;;;;;;;5.60;5.20;;;30.80;59.10;;;;;;4957802;29;20499;-80
2023/07/09 08:30:26;;;;;;;4.87;4.47;;;30.80;59.70;;;;;;4958165;29;20567;-79
2023/07/09 08:32:57;;;;;;;4.87;4.50;;;30.90;59.20;;;;;;4957802;29;20533;-78
2023/07/09 08:35:24;;;;;;;5.83;5.27;;;31.00;59.10;;;;;;4957145;28;20815;-80
2023/07/09 08:37:52;;;;;;;4.63;4.23;;;31.00;58.30;;;;;;4954375;29;20480;-77
2023/07/09 08:40:19;;;;;;;3.80;3.50;;;31.10;58.00;;;;;;4957011;29;20474;-77
2023/07/09 08:42:48;;;;;;;5.53;5.13;;;31.10;58.00;;;;;;4956180;29;20495;-77
2023/07/09 08:45:26;;;;;;;4.97;4.50;;;31.10;59.00;;;;;;4955353;28;20506;-77
2023/07/09 08:48:03;;;;;;;4.70;4.30;;;31.20;57.40;;;;;;4955760;29;20873;-80
2023/07/09 08:50:38;;;;;;;5.43;4.93;;;31.20;57.00;;;;;;4955517;29;20475;-76
2023/07/09 08:53:07;;;;;;;5.93;5.47;;;31.20;58.50;;;;;;4955211;29;22006;-80
2023/07/09 08:55:40;;;;;;;5.83;5.33;;;31.20;59.30;;;;;;4955054;28;20484;-77
2023/07/09 08:58:13;;;;;;;4.87;4.57;;;31.20;57.90;;;;;;4956356;29;20463;-80
2023/07/09 09:00:45;;;;;;;5.20;4.83;;;31.20;57.90;;;;;;4958877;28;20467;-77
2023/07/09 09:03:20;;;;;;;4.93;4.53;;;31.20;58.00;;;;;;4958966;29;20547;-76
2023/07/09 09:05:51;;;;;;;5.27;4.80;;;31.20;57.60;;;;;;4959437;28;20538;-79
2023/07/09 09:08:33;;;;;;;4.43;3.93;;;31.20;57.60;;;;;;4959243;29;20901;-77
2023/07/09 09:11:08;;;;;;;6.37;4.50;;;31.10;57.70;;;;;;4958598;29;20502;-78
2023/07/09 09:13:38;;;;;;;4.10;3.63;;;31.10;57.70;;;;;;4959275;28;20471;-76
2023/07/09 09:16:14;;;;;;;4.57;4.17;;;31.10;56.50;;;;;;4958699;29;20468;-77
2023/07/09 09:18:45;;;;;;;4.50;4.20;;;31.10;56.50;;;;;;4958944;29;20964;-77
2023/07/09 09:21:23;;;;;;;6.70;5.10;;;31.10;56.20;;;;;;4958269;29;20476;-81
2023/07/09 09:23:53;;;;;;;5.30;4.90;;;31.10;56.50;;;;;;4959212;28;20475;-77
2023/07/09 09:26:27;;;;;;;4.30;4.00;;;31.00;55.90;;;;;;4959899;29;20467;-77
2023/07/09 09:28:54;;;;;;;4.20;3.90;;;31.00;55.90;;;;;;4960182;29;20867;-78
2023/07/09 09:31:21;;;;;;;4.83;4.43;;;31.00;54.70;;;;;;4958767;29;20556;-78
2023/07/09 09:33:51;;;;;;;4.67;4.27;;;31.00;55.20;;;;;;4959129;28;20495;-81
2023/07/09 09:36:33;;;;;;;4.50;4.10;;;31.00;54.10;;;;;;4958532;29;20540;-80
2023/07/09 09:39:03;;;;;;;4.63;4.33;;;30.90;54.50;;;;;;4957853;29;20468;-77
2023/07/09 09:41:34;;;;;;;4.43;4.13;;;31.00;55.20;;;;;;4958167;29;20476;-77
2023/07/09 09:44:02;;;;;;;5.50;5.00;;;31.00;53.60;;;;;;4960568;28;20858;-78
2023/07/09 09:46:29;;;;;;;5.47;5.00;;;30.90;54.30;;;;;;4958669;29;20977;-77
2023/07/09 09:49:01;;;;;;;4.53;4.00;;;31.00;55.00;;;;;;4958454;29;20973;-77
2023/07/09 09:51:29;;;;;;;3.93;3.73;;;30.90;54.80;;;;;;4957344;29;20873;-79
2023/07/09 09:53:59;;;;;;;5.17;4.77;;;31.00;54.20;;;;;;4958210;28;20961;-78
2023/07/09 09:56:29;;;;;;;5.80;5.40;;;30.90;54.20;;;;;;4957340;29;20502;-77
2023/07/09 09:58:58;;;;;;;4.77;4.47;;;30.90;54.80;;;;;;4957780;29;20598;-77
2023/07/09 10:01:29;;;;;;;4.73;4.33;;;30.90;54.50;;;;;;4957412;29;20546;-80
2023/07/09 10:04:00;;;;;;;5.13;4.73;;;30.90;55.10;;;;;;4957840;28;20472;-77
2023/07/09 10:06:35;;;;;;;5.20;4.70;;;30.90;55.40;;;;;;4957784;29;20460;-77
2023/07/09 10:09:10;;;;;;;4.53;4.23;;;30.90;55.40;;;;;;4958037;29;20487;-78
2023/07/09 10:11:46;;;;;;;4.83;4.53;;;30.90;55.40;;;;;;4956615;28;20467;-77
2023/07/09 10:14:29;;;;;;;4.23;3.93;;;30.90;55.00;;;;;;4957164;28;20562;-77
2023/07/09 10:17:05;;;;;;;5.07;4.67;;;30.80;54.70;;;;;;4958291;29;20857;-77
2023/07/09 10:19:39;;;;;;;4.20;3.87;;;30.80;55.30;;;;;;4956033;29;20487;-77
2023/07/09 10:22:11;;;;;;;4.87;4.57;;;30.80;54.70;;;;;;4957953;29;20546;-77
2023/07/09 10:25:02;;;;;;;3.80;3.50;;;30.80;54.20;;;;;;4957172;28;20500;-77
2023/07/09 10:27:37;;;;;;;5.33;4.93;;;30.80;54.50;;;;;;4957442;29;20546;-76
2023/07/09 10:30:20;;;;;;;4.23;3.93;;;30.80;54.30;;;;;;4958550;29;20471;-77
2023/07/09 10:33:02;;;;;;;4.70;4.30;;;30.80;54.50;;;;;;4957285;29;20480;-81
2023/07/09 10:35:38;;;;;;;5.43;4.93;;;30.80;54.40;;;;;;4956801;28;20503;-80
2023/07/09 10:38:20;;;;;;;4.80;4.47;;;30.90;54.50;;;;;;4956220;29;20467;-80
2023/07/09 10:40:51;;;;;;;4.33;3.93;;;30.90;54.30;;;;;;4955464;29;20464;-78
2023/07/09 10:43:23;;;;;;;4.63;4.23;;;30.90;54.30;;;;;;4956507;29;20476;-77
2023/07/09 10:45:55;;;;;;;4.47;4.17;;;30.90;54.30;;;;;;4956949;29;20460;-78
2023/07/09 10:48:33;;;;;;;5.90;5.40;;;30.90;54.00;;;;;;4958048;29;20547;-81
2023/07/09 10:51:03;;;;;;;6.67;6.07;;;30.90;54.70;;;;;;4959919;29;21652;-77
2023/07/09 10:53:37;;;;;;;5.80;5.30;;;31.00;55.00;;;;;;4957730;28;20547;-80
2023/07/09 10:56:11;;;;;;;4.40;4.10;;;30.90;55.10;;;;;;4959918;29;20458;-77
2023/07/09 10:58:44;;;;;;;5.20;4.80;;;31.00;55.30;;;;;;4964271;29;20475;-77
2023/07/09 11:01:15;;;;;;;5.87;5.37;;;31.00;55.60;;;;;;4963819;29;20530;-80
2023/07/09 11:03:50;;;;;;;4.93;4.53;;;31.00;55.80;;;;;;4961717;28;20472;-79
2023/07/09 11:06:22;;;;;;;4.90;4.60;;;31.00;55.60;;;;;;4961345;29;21398;-79
2023/07/09 11:08:53;;;;;;;4.80;4.40;;;31.00;55.60;;;;;;4962500;29;20486;-80
2023/07/09 11:11:30;;;;;;;4.60;4.30;;;31.00;55.40;;;;;;4960496;29;20460;-76
2023/07/09 11:14:01;;;;;;;4.67;4.27;;;31.00;55.40;;;;;;4957682;28;20528;-78
2023/07/09 11:16:33;;;;;;;5.10;4.60;;;31.00;55.30;;;;;;4956866;29;20474;-77
2023/07/09 11:19:02;;;;;;;4.70;4.40;;;31.00;55.30;;;;;;4961923;29;20514;-81
2023/07/09 11:21:31;;;;;;;5.67;5.17;;;31.10;55.40;;;;;;4959418;28;20480;-79
2023/07/09 11:24:00;;;;;;;6.17;5.67;;;31.10;54.90;;;;;;4961489;28;20954;-79
2023/07/09 11:26:29;;;;;;;5.63;4.40;;;31.10;54.20;;;;;;4958454;29;20499;-78
2023/07/09 11:29:10;;;;;;;5.60;5.20;;;31.10;54.30;;;;;;4956270;29;20996;-78
2023/07/09 11:31:39;;;;;;;5.10;4.80;;;31.10;54.20;;;;;;4961420;29;20487;-80
2023/07/09 11:34:10;;;;;;;5.10;4.70;;;31.20;54.00;;;;;;4960055;28;20468;-79
2023/07/09 11:36:50;;;;;;;5.10;4.60;;;31.20;54.10;;;;;;4956889;29;20472;-78
2023/07/09 11:39:29;;;;;;;4.50;4.10;;;31.20;54.40;;;;;;4958252;29;20527;-79
2023/07/09 11:41:56;;;;;;;4.87;4.47;;;31.20;54.50;;;;;;4958784;29;20491;-80
2023/07/09 11:44:25;;;;;;;6.07;5.47;;;31.20;54.00;;;;;;4959456;28;20566;-80
2023/07/09 11:47:02;;;;;;;4.90;4.50;;;31.20;53.80;;;;;;4958427;29;20522;-76
2023/07/09 11:49:48;;;;;;;4.90;4.53;;;31.20;54.10;;;;;;4958602;29;20535;-81
2023/07/09 11:52:25;;;;;;;4.50;4.20;;;31.20;53.90;;;;;;4960924;29;20472;-76
2023/07/09 11:54:51;;;;;;;4.60;4.20;;;31.20;54.00;;;;;;4958606;28;20490;-81
2023/07/09 11:57:19;;;;;;;5.30;5.00;;;31.20;52.90;;;;;;4958689;29;20850;-81
2023/07/09 11:59:48;;;;;;;6.40;5.90;;;31.20;52.60;;;;;;4956611;29;20474;-77
2023/07/09 12:02:19;;;;;;;4.93;4.60;;;31.20;53.80;;;;;;4956784;29;20535;-79
2023/07/09 12:04:50;;;;;;;6.33;4.20;;;31.20;54.30;;;;;;4935606;28;20834;-80
2023/07/09 12:07:20;;;;;;;5.17;4.77;;;31.20;54.60;;;;;;4951825;29;20472;-81
2023/07/09 12:09:53;;;;;;;5.60;5.10;;;31.20;54.80;;;;;;4955010;29;20550;-77
2023/07/09 12:12:22;;;;;;;5.50;5.00;;;31.30;55.20;;;;;;4955495;29;20463;-80
2023/07/09 12:14:50;;;;;;;5.00;4.60;;;31.30;54.40;;;;;;4955274;28;20480;-80
2023/07/09 12:17:17;;;;;;;4.53;4.23;;;31.30;54.30;;;;;;4955554;29;20984;-77
2023/07/09 12:19:44;;;;;;;5.27;4.87;;;31.30;54.20;;;;;;4955013;29;20542;-77
2023/07/09 12:22:20;;;;;;;4.70;4.30;;;31.30;54.60;;;;;;4955362;29;20555;-78
2023/07/09 12:24:49;;;;;;;4.87;4.47;;;31.30;54.50;;;;;;4954757;28;20514;-77
2023/07/09 12:27:24;;;;;;;5.83;5.33;;;31.30;54.40;;;;;;4956016;29;20969;-77
2023/07/09 12:29:56;;;;;;;5.67;4.93;;;31.30;54.20;;;;;;4955045;29;20475;-79
2023/07/09 12:32:26;;;;;;;5.50;4.17;;;31.30;54.50;;;;;;4954600;29;20542;-76
2023/07/09 12:34:55;;;;;;;4.70;4.40;;;31.30;54.20;;;;;;4956161;28;20846;-76
2023/07/09 12:37:25;;;;;;;5.10;4.67;;;31.30;53.50;;;;;;4959081;29;20809;-76
2023/07/09 12:39:53;;;;;;;6.13;4.53;;;31.30;53.50;;;;;;4958174;29;20548;-78
2023/07/09 12:42:26;;;;;;;5.10;4.60;;;31.30;53.70;;;;;;4959277;29;20558;-81
2023/07/09 12:44:53;;;;;;;5.83;4.27;;;31.30;53.70;;;;;;4959097;28;20475;-81
2023/07/09 12:47:24;;;;;;;4.97;4.57;;;31.30;53.50;;;;;;4958725;29;20476;-80
2023/07/09 12:49:51;;;;;;;5.03;4.70;;;31.30;53.30;;;;;;4957826;29;20471;-77
2023/07/09 12:52:20;;;;;;;7.53;4.87;;;31.30;53.40;;;;;;4958590;29;20479;-80
2023/07/09 12:54:57;;;;;;;4.97;4.67;;;31.30;53.50;;;;;;4957914;28;20559;-78
2023/07/09 12:57:25;;;;;;;4.60;4.20;;;31.30;53.20;;;;;;4958897;29;20467;-78
2023/07/09 12:59:53;;;;;;;4.60;4.20;;;31.30;52.90;;;;;;4958059;29;20539;-78